sensor_id;sensor_type;location;lat;lon;timestamp;P1;durP1;ratioP1;P2;durP2;ratioP2
15358;SDS011;7779;49.596;11.070;2022-08-11T00:00:32;2.93;;;2.07;;
15358;SDS011;7779;49.596;11.070;2022-08-11T00:03:07;1.70;;;1.60;;
15358;SDS011;7779;49.596;11.070;2022-08-11T00:05:47;2.83;;;1.83;;
15358;SDS011;7779;49.596;11.070;2022-08-11T00:08:20;2.93;;;1.97;;
15358;SDS011;7779;49.596;11.070;2022-08-11T00:10:52;2.70;;;2.07;;
15358;SDS011;7779;49.596;11.070;2022-08-11T00:13:34;3.03;;;1.97;;
15358;SDS011;7779;49.596;11.070;2022-08-11T00:16:04;4.00;;;1.93;;
15358;SDS011;7779;49.596;11.070;2022-08-11T00:18:42;4.40;;;2.27;;
15358;SDS011;7779;49.596;11.070;2022-08-11T00:21:12;2.20;;;1.70;;
15358;SDS011;7779;49.596;11.070;2022-08-11T00:23:44;2.70;;;2.03;;
15358;SDS011;7779;49.596;11.070;2022-08-11T00:26:18;2.13;;;1.90;;
15358;SDS011;7779;49.596;11.070;2022-08-11T00:28:46;3.67;;;2.10;;
15358;SDS011;7779;49.596;11.070;2022-08-11T00:33:56;3.40;;;2.20;;
15358;SDS011;7779;49.596;11.070;2022-08-11T00:36:26;3.53;;;2.37;;
15358;SDS011;7779;49.596;11.070;2022-08-11T00:39:04;5.47;;;1.97;;
15358;SDS011;7779;49.596;11.070;2022-08-11T00:47:53;3.97;;;2.50;;
15358;SDS011;7779;49.596;11.070;2022-08-11T00:54:02;3.83;;;2.40;;
15358;SDS011;7779;49.596;11.070;2022-08-11T01:11:39;2.60;;;2.30;;
15358;SDS011;7779;49.596;11.070;2022-08-11T01:30:13;2.07;;;1.87;;
15358;SDS011;7779;49.596;11.070;2022-08-11T01:46:15;3.13;;;2.17;;
15358;SDS011;7779;49.596;11.070;2022-08-11T01:49:10;2.73;;;2.10;;
15358;SDS011;7779;49.596;11.070;2022-08-11T01:52:16;2.80;;;1.80;;
15358;SDS011;7779;49.596;11.070;2022-08-11T01:58:32;2.60;;;1.93;;
15358;SDS011;7779;49.596;11.070;2022-08-11T02:01:10;2.20;;;2.00;;
15358;SDS011;7779;49.596;11.070;2022-08-11T02:10:29;3.03;;;2.00;;
15358;SDS011;7779;49.596;11.070;2022-08-11T02:16:29;2.37;;;2.17;;
15358;SDS011;7779;49.596;11.070;2022-08-11T02:23:02;1.87;;;1.73;;
15358;SDS011;7779;49.596;11.070;2022-08-11T02:26:04;3.53;;;2.10;;
15358;SDS011;7779;49.596;11.070;2022-08-11T02:42:25;2.50;;;2.10;;
15358;SDS011;7779;49.596;11.070;2022-08-11T02:51:39;2.10;;;1.90;;
15358;SDS011;7779;49.596;11.070;2022-08-11T02:54:52;2.27;;;2.07;;
15358;SDS011;7779;49.596;11.070;2022-08-11T02:57:46;2.63;;;2.10;;
15358;SDS011;7779;49.596;11.070;2022-08-11T03:00:28;3.07;;;2.10;;
15358;SDS011;7779;49.596;11.070;2022-08-11T03:03:20;2.83;;;2.03;;
15358;SDS011;7779;49.596;11.070;2022-08-11T03:06:02;3.07;;;1.87;;
15358;SDS011;7779;49.596;11.070;2022-08-11T03:08:57;2.23;;;1.80;;
15358;SDS011;7779;49.596;11.070;2022-08-11T03:23:33;3.27;;;2.30;;
15358;SDS011;7779;49.596;11.070;2022-08-11T03:26:27;2.30;;;1.97;;
15358;SDS011;7779;49.596;11.070;2022-08-11T03:29:30;2.33;;;2.10;;
15358;SDS011;7779;49.596;11.070;2022-08-11T03:32:20;3.23;;;2.10;;
15358;SDS011;7779;49.596;11.070;2022-08-11T03:35:10;3.87;;;2.00;;
15358;SDS011;7779;49.596;11.070;2022-08-11T03:40:23;2.63;;;2.00;;
15358;SDS011;7779;49.596;11.070;2022-08-11T03:46:26;2.40;;;2.20;;
15358;SDS011;7779;49.596;11.070;2022-08-11T03:50:25;3.17;;;2.30;;
15358;SDS011;7779;49.596;11.070;2022-08-11T03:58:35;3.33;;;2.00;;
15358;SDS011;7779;49.596;11.070;2022-08-11T04:02:24;2.37;;;2.13;;
15358;SDS011;7779;49.596;11.070;2022-08-11T04:10:52;2.30;;;2.10;;
15358;SDS011;7779;49.596;11.070;2022-08-11T04:20:48;1.93;;;1.80;;
15358;SDS011;7779;49.596;11.070;2022-08-11T04:29:37;3.47;;;1.90;;
15358;SDS011;7779;49.596;11.070;2022-08-11T04:32:30;2.67;;;1.80;;
15358;SDS011;7779;49.596;11.070;2022-08-11T04:35:19;3.87;;;2.03;;
15358;SDS011;7779;49.596;11.070;2022-08-11T04:41:32;3.47;;;1.90;;
15358;SDS011;7779;49.596;11.070;2022-08-11T04:48:05;2.30;;;2.10;;
15358;SDS011;7779;49.596;11.070;2022-08-11T05:13:32;2.10;;;1.90;;
15358;SDS011;7779;49.596;11.070;2022-08-11T05:16:32;3.50;;;2.07;;
15358;SDS011;7779;49.596;11.070;2022-08-11T05:19:26;2.63;;;2.30;;
15358;SDS011;7779;49.596;11.070;2022-08-11T05:22:11;4.10;;;2.30;;
15358;SDS011;7779;49.596;11.070;2022-08-11T05:25:06;2.67;;;2.17;;
15358;SDS011;7779;49.596;11.070;2022-08-11T05:28:05;2.30;;;1.90;;
15358;SDS011;7779;49.596;11.070;2022-08-11T05:30:56;2.33;;;2.13;;
15358;SDS011;7779;49.596;11.070;2022-08-11T05:33:55;4.17;;;1.90;;
15358;SDS011;7779;49.596;11.070;2022-08-11T05:36:54;1.63;;;1.53;;
15358;SDS011;7779;49.596;11.070;2022-08-11T05:39:50;2.90;;;1.87;;
15358;SDS011;7779;49.596;11.070;2022-08-11T05:42:42;2.17;;;1.77;;
15358;SDS011;7779;49.596;11.070;2022-08-11T05:45:37;2.10;;;1.90;;
15358;SDS011;7779;49.596;11.070;2022-08-11T05:48:22;2.37;;;1.70;;
15358;SDS011;7779;49.596;11.070;2022-08-11T05:51:17;2.17;;;1.80;;
15358;SDS011;7779;49.596;11.070;2022-08-11T05:54:03;2.13;;;1.93;;
15358;SDS011;7779;49.596;11.070;2022-08-11T05:56:53;2.90;;;1.77;;
15358;SDS011;7779;49.596;11.070;2022-08-11T05:59:23;2.00;;;1.80;;
15358;SDS011;7779;49.596;11.070;2022-08-11T06:02:05;2.37;;;1.57;;
15358;SDS011;7779;49.596;11.070;2022-08-11T06:04:33;2.07;;;1.73;;
15358;SDS011;7779;49.596;11.070;2022-08-11T06:07:00;1.97;;;1.60;;
15358;SDS011;7779;49.596;11.070;2022-08-11T06:09:37;2.10;;;1.60;;
15358;SDS011;7779;49.596;11.070;2022-08-11T06:12:22;2.73;;;1.70;;
15358;SDS011;7779;49.596;11.070;2022-08-11T06:15:03;2.20;;;1.50;;
15358;SDS011;7779;49.596;11.070;2022-08-11T06:17:34;2.23;;;1.40;;
15358;SDS011;7779;49.596;11.070;2022-08-11T06:20:09;3.60;;;1.80;;
15358;SDS011;7779;49.596;11.070;2022-08-11T06:22:44;2.33;;;1.70;;
15358;SDS011;7779;49.596;11.070;2022-08-11T06:25:19;2.00;;;1.80;;
15358;SDS011;7779;49.596;11.070;2022-08-11T06:27:46;2.60;;;1.70;;
15358;SDS011;7779;49.596;11.070;2022-08-11T06:30:23;2.70;;;1.90;;
15358;SDS011;7779;49.596;11.070;2022-08-11T06:33:20;2.20;;;1.40;;
15358;SDS011;7779;49.596;11.070;2022-08-11T06:39:46;2.20;;;1.80;;
15358;SDS011;7779;49.596;11.070;2022-08-11T06:42:43;1.90;;;1.60;;
15358;SDS011;7779;49.596;11.070;2022-08-11T06:45:29;3.70;;;1.60;;
15358;SDS011;7779;49.596;11.070;2022-08-11T06:48:14;1.70;;;1.60;;
15358;SDS011;7779;49.596;11.070;2022-08-11T06:50:51;2.30;;;1.63;;
15358;SDS011;7779;49.596;11.070;2022-08-11T06:56:36;2.30;;;1.70;;
15358;SDS011;7779;49.596;11.070;2022-08-11T06:59:23;2.47;;;1.60;;
15358;SDS011;7779;49.596;11.070;2022-08-11T07:02:19;1.50;;;1.40;;
15358;SDS011;7779;49.596;11.070;2022-08-11T07:04:59;1.70;;;1.60;;
15358;SDS011;7779;49.596;11.070;2022-08-11T07:14:04;3.03;;;1.67;;
15358;SDS011;7779;49.596;11.070;2022-08-11T07:16:50;2.87;;;1.73;;
15358;SDS011;7779;49.596;11.070;2022-08-11T07:19:23;1.73;;;1.60;;
15358;SDS011;7779;49.596;11.070;2022-08-11T07:22:12;2.97;;;1.70;;
15358;SDS011;7779;49.596;11.070;2022-08-11T07:25:02;2.73;;;1.33;;
15358;SDS011;7779;49.596;11.070;2022-08-11T07:28:20;1.53;;;1.40;;
15358;SDS011;7779;49.596;11.070;2022-08-11T07:31:09;1.80;;;1.70;;
15358;SDS011;7779;49.596;11.070;2022-08-11T07:33:46;2.17;;;1.70;;
15358;SDS011;7779;49.596;11.070;2022-08-11T07:36:39;1.70;;;1.43;;
15358;SDS011;7779;49.596;11.070;2022-08-11T07:39:13;3.20;;;1.50;;
15358;SDS011;7779;49.596;11.070;2022-08-11T07:41:45;2.50;;;1.77;;
15358;SDS011;7779;49.596;11.070;2022-08-11T07:44:14;2.23;;;1.50;;
15358;SDS011;7779;49.596;11.070;2022-08-11T07:46:42;1.67;;;1.50;;
15358;SDS011;7779;49.596;11.070;2022-08-11T07:49:34;1.93;;;1.73;;
15358;SDS011;7779;49.596;11.070;2022-08-11T07:52:20;2.10;;;1.63;;
15358;SDS011;7779;49.596;11.070;2022-08-11T07:55:17;1.50;;;1.40;;
15358;SDS011;7779;49.596;11.070;2022-08-11T07:57:45;1.93;;;1.50;;
15358;SDS011;7779;49.596;11.070;2022-08-11T08:03:48;1.57;;;1.47;;
15358;SDS011;7779;49.596;11.070;2022-08-11T08:06:34;1.50;;;1.40;;
15358;SDS011;7779;49.596;11.070;2022-08-11T08:09:20;2.70;;;1.40;;
15358;SDS011;7779;49.596;11.070;2022-08-11T08:12:07;2.17;;;1.97;;
15358;SDS011;7779;49.596;11.070;2022-08-11T08:14:53;2.37;;;1.70;;
15358;SDS011;7779;49.596;11.070;2022-08-11T08:17:40;2.80;;;1.60;;
15358;SDS011;7779;49.596;11.070;2022-08-11T08:20:22;2.30;;;1.70;;
15358;SDS011;7779;49.596;11.070;2022-08-11T08:22:54;5.07;;;1.70;;
15358;SDS011;7779;49.596;11.070;2022-08-11T08:25:26;3.30;;;1.80;;
15358;SDS011;7779;49.596;11.070;2022-08-11T08:27:56;1.83;;;1.70;;
15358;SDS011;7779;49.596;11.070;2022-08-11T08:30:26;1.63;;;1.47;;
15358;SDS011;7779;49.596;11.070;2022-08-11T08:35:47;2.37;;;1.50;;
15358;SDS011;7779;49.596;11.070;2022-08-11T08:38:36;1.77;;;1.60;;
15358;SDS011;7779;49.596;11.070;2022-08-11T08:41:03;1.33;;;1.23;;
15358;SDS011;7779;49.596;11.070;2022-08-11T08:43:30;2.70;;;1.67;;
15358;SDS011;7779;49.596;11.070;2022-08-11T08:45:59;1.63;;;1.40;;
15358;SDS011;7779;49.596;11.070;2022-08-11T08:48:28;2.23;;;1.47;;
15358;SDS011;7779;49.596;11.070;2022-08-11T08:50:57;1.60;;;1.50;;
15358;SDS011;7779;49.596;11.070;2022-08-11T08:53:49;2.13;;;1.23;;
15358;SDS011;7779;49.596;11.070;2022-08-11T08:56:19;1.50;;;1.40;;
15358;SDS011;7779;49.596;11.070;2022-08-11T08:58:52;1.90;;;1.37;;
15358;SDS011;7779;49.596;11.070;2022-08-11T09:01:19;1.90;;;1.67;;
15358;SDS011;7779;49.596;11.070;2022-08-11T09:03:49;1.30;;;1.20;;
15358;SDS011;7779;49.596;11.070;2022-08-11T09:06:16;1.57;;;1.47;;
15358;SDS011;7779;49.596;11.070;2022-08-11T09:08:43;1.60;;;1.23;;
15358;SDS011;7779;49.596;11.070;2022-08-11T09:11:10;1.67;;;1.30;;
15358;SDS011;7779;49.596;11.070;2022-08-11T09:13:57;2.70;;;1.60;;
15358;SDS011;7779;49.596;11.070;2022-08-11T09:16:26;1.50;;;1.40;;
15358;SDS011;7779;49.596;11.070;2022-08-11T09:18:52;3.67;;;1.40;;
15358;SDS011;7779;49.596;11.070;2022-08-11T09:21:19;2.03;;;1.37;;
15358;SDS011;7779;49.596;11.070;2022-08-11T09:23:47;1.60;;;1.50;;
15358;SDS011;7779;49.596;11.070;2022-08-11T09:26:34;1.97;;;1.50;;
15358;SDS011;7779;49.596;11.070;2022-08-11T09:29:21;1.83;;;1.63;;
15358;SDS011;7779;49.596;11.070;2022-08-11T09:31:47;1.50;;;1.40;;
15358;SDS011;7779;49.596;11.070;2022-08-11T09:34:13;2.57;;;1.33;;
15358;SDS011;7779;49.596;11.070;2022-08-11T09:36:42;2.57;;;1.20;;
15358;SDS011;7779;49.596;11.070;2022-08-11T09:39:28;1.50;;;1.40;;
15358;SDS011;7779;49.596;11.070;2022-08-11T09:42:15;1.63;;;1.53;;
15358;SDS011;7779;49.596;11.070;2022-08-11T09:44:44;1.30;;;1.20;;
15358;SDS011;7779;49.596;11.070;2022-08-11T09:47:28;4.70;;;1.33;;
15358;SDS011;7779;49.596;11.070;2022-08-11T09:49:55;1.33;;;1.23;;
15358;SDS011;7779;49.596;11.070;2022-08-11T09:52:28;1.40;;;1.30;;
15358;SDS011;7779;49.596;11.070;2022-08-11T09:54:58;2.37;;;1.43;;
15358;SDS011;7779;49.596;11.070;2022-08-11T09:57:30;2.80;;;1.20;;
15358;SDS011;7779;49.596;11.070;2022-08-11T10:00:15;1.60;;;1.33;;
15358;SDS011;7779;49.596;11.070;2022-08-11T10:02:42;1.43;;;1.33;;
15358;SDS011;7779;49.596;11.070;2022-08-11T10:05:12;1.83;;;1.50;;
15358;SDS011;7779;49.596;11.070;2022-08-11T10:08:02;1.63;;;1.53;;
15358;SDS011;7779;49.596;11.070;2022-08-11T10:10:29;1.73;;;1.30;;
15358;SDS011;7779;49.596;11.070;2022-08-11T10:13:02;1.40;;;1.30;;
15358;SDS011;7779;49.596;11.070;2022-08-11T10:15:34;1.63;;;1.53;;
15358;SDS011;7779;49.596;11.070;2022-08-11T10:18:15;1.77;;;1.47;;
15358;SDS011;7779;49.596;11.070;2022-08-11T10:24:03;1.30;;;1.20;;
15358;SDS011;7779;49.596;11.070;2022-08-11T10:26:51;4.93;;;1.20;;
15358;SDS011;7779;49.596;11.070;2022-08-11T10:29:22;1.77;;;1.67;;
15358;SDS011;7779;49.596;11.070;2022-08-11T10:32:11;1.30;;;1.20;;
15358;SDS011;7779;49.596;11.070;2022-08-11T10:34:59;1.70;;;1.60;;
15358;SDS011;7779;49.596;11.070;2022-08-11T10:37:26;1.40;;;1.30;;
15358;SDS011;7779;49.596;11.070;2022-08-11T10:39:58;2.93;;;1.40;;
15358;SDS011;7779;49.596;11.070;2022-08-11T10:42:25;1.37;;;1.27;;
15358;SDS011;7779;49.596;11.070;2022-08-11T10:45:10;1.30;;;1.20;;
15358;SDS011;7779;49.596;11.070;2022-08-11T10:48:16;1.50;;;1.20;;
15358;SDS011;7779;49.596;11.070;2022-08-11T10:50:48;2.50;;;1.67;;
15358;SDS011;7779;49.596;11.070;2022-08-11T10:53:35;1.13;;;1.03;;
15358;SDS011;7779;49.596;11.070;2022-08-11T10:56:23;2.70;;;1.30;;
15358;SDS011;7779;49.596;11.070;2022-08-11T10:59:11;1.73;;;1.30;;
15358;SDS011;7779;49.596;11.070;2022-08-11T11:01:40;1.30;;;1.20;;
15358;SDS011;7779;49.596;11.070;2022-08-11T11:04:14;4.30;;;1.53;;
15358;SDS011;7779;49.596;11.070;2022-08-11T11:09:27;1.50;;;1.17;;
15358;SDS011;7779;49.596;11.070;2022-08-11T11:15:03;0.93;;;0.93;;
15358;SDS011;7779;49.596;11.070;2022-08-11T11:17:54;4.13;;;1.73;;
15358;SDS011;7779;49.596;11.070;2022-08-11T11:20:42;2.90;;;1.10;;
15358;SDS011;7779;49.596;11.070;2022-08-11T11:26:07;1.20;;;1.10;;
15358;SDS011;7779;49.596;11.070;2022-08-11T11:37:55;1.20;;;1.10;;
15358;SDS011;7779;49.596;11.070;2022-08-11T11:40:23;1.87;;;1.20;;
15358;SDS011;7779;49.596;11.070;2022-08-11T11:42:52;1.57;;;1.10;;
15358;SDS011;7779;49.596;11.070;2022-08-11T11:45:22;1.20;;;0.90;;
15358;SDS011;7779;49.596;11.070;2022-08-11T11:47:50;1.20;;;1.10;;
15358;SDS011;7779;49.596;11.070;2022-08-11T11:50:26;1.30;;;1.20;;
15358;SDS011;7779;49.596;11.070;2022-08-11T11:52:59;1.27;;;1.13;;
15358;SDS011;7779;49.596;11.070;2022-08-11T11:55:30;1.20;;;1.10;;
15358;SDS011;7779;49.596;11.070;2022-08-11T11:57:57;1.27;;;1.13;;
15358;SDS011;7779;49.596;11.070;2022-08-11T12:00:44;1.20;;;1.10;;
15358;SDS011;7779;49.596;11.070;2022-08-11T12:03:30;1.60;;;1.20;;
15358;SDS011;7779;49.596;11.070;2022-08-11T12:05:59;1.20;;;1.10;;
15358;SDS011;7779;49.596;11.070;2022-08-11T12:08:28;1.50;;;1.17;;
15358;SDS011;7779;49.596;11.070;2022-08-11T12:11:01;1.27;;;1.17;;
15358;SDS011;7779;49.596;11.070;2022-08-11T12:13:50;1.30;;;1.20;;
15358;SDS011;7779;49.596;11.070;2022-08-11T12:16:20;1.43;;;0.93;;
15358;SDS011;7779;49.596;11.070;2022-08-11T12:18:49;2.27;;;1.03;;
15358;SDS011;7779;49.596;11.070;2022-08-11T12:21:20;2.40;;;1.03;;
15358;SDS011;7779;49.596;11.070;2022-08-11T12:23:48;1.67;;;1.13;;
15358;SDS011;7779;49.596;11.070;2022-08-11T12:26:34;1.23;;;1.13;;
15358;SDS011;7779;49.596;11.070;2022-08-11T12:29:21;1.13;;;1.00;;
15358;SDS011;7779;49.596;11.070;2022-08-11T12:31:51;2.93;;;1.20;;
15358;SDS011;7779;49.596;11.070;2022-08-11T12:34:19;1.03;;;1.03;;
15358;SDS011;7779;49.596;11.070;2022-08-11T12:36:57;1.23;;;1.13;;
15358;SDS011;7779;49.596;11.070;2022-08-11T12:39:32;1.10;;;0.90;;
15358;SDS011;7779;49.596;11.070;2022-08-11T12:42:24;1.30;;;1.20;;
15358;SDS011;7779;49.596;11.070;2022-08-11T12:45:11;1.30;;;1.20;;
15358;SDS011;7779;49.596;11.070;2022-08-11T12:51:29;1.30;;;1.20;;
15358;SDS011;7779;49.596;11.070;2022-08-11T12:57:09;1.30;;;1.20;;
15358;SDS011;7779;49.596;11.070;2022-08-11T12:59:58;2.57;;;1.20;;
15358;SDS011;7779;49.596;11.070;2022-08-11T13:02:45;1.40;;;1.20;;
15358;SDS011;7779;49.596;11.070;2022-08-11T13:05:31;1.27;;;1.07;;
15358;SDS011;7779;49.596;11.070;2022-08-11T13:08:01;1.20;;;1.10;;
15358;SDS011;7779;49.596;11.070;2022-08-11T13:10:28;3.90;;;1.37;;
15358;SDS011;7779;49.596;11.070;2022-08-11T13:13:16;1.63;;;1.10;;
15358;SDS011;7779;49.596;11.070;2022-08-11T13:15:45;1.30;;;1.03;;
15358;SDS011;7779;49.596;11.070;2022-08-11T13:18:16;1.23;;;1.10;;
15358;SDS011;7779;49.596;11.070;2022-08-11T13:20:47;1.20;;;1.00;;
15358;SDS011;7779;49.596;11.070;2022-08-11T13:23:17;1.93;;;1.20;;
15358;SDS011;7779;49.596;11.070;2022-08-11T13:25:44;1.40;;;1.20;;
15358;SDS011;7779;49.596;11.070;2022-08-11T13:28:11;1.10;;;1.00;;
15358;SDS011;7779;49.596;11.070;2022-08-11T13:30:38;1.30;;;1.20;;
15358;SDS011;7779;49.596;11.070;2022-08-11T13:33:23;1.23;;;1.13;;
15358;SDS011;7779;49.596;11.070;2022-08-11T13:35:51;1.10;;;1.03;;
15358;SDS011;7779;49.596;11.070;2022-08-11T13:38:20;2.23;;;1.10;;
15358;SDS011;7779;49.596;11.070;2022-08-11T13:40:49;0.90;;;0.90;;
15358;SDS011;7779;49.596;11.070;2022-08-11T13:43:19;2.13;;;1.07;;
15358;SDS011;7779;49.596;11.070;2022-08-11T13:45:47;1.43;;;1.07;;
15358;SDS011;7779;49.596;11.070;2022-08-11T13:48:17;1.00;;;1.00;;
15358;SDS011;7779;49.596;11.070;2022-08-11T13:50:43;1.47;;;1.33;;
15358;SDS011;7779;49.596;11.070;2022-08-11T13:53:29;1.00;;;1.00;;
15358;SDS011;7779;49.596;11.070;2022-08-11T13:55:58;1.07;;;0.93;;
15358;SDS011;7779;49.596;11.070;2022-08-11T13:58:26;1.20;;;1.10;;
15358;SDS011;7779;49.596;11.070;2022-08-11T14:00:53;1.50;;;1.33;;
15358;SDS011;7779;49.596;11.070;2022-08-11T14:03:24;1.70;;;1.17;;
15358;SDS011;7779;49.596;11.070;2022-08-11T14:05:53;4.10;;;1.30;;
15358;SDS011;7779;49.596;11.070;2022-08-11T14:08:25;1.07;;;0.97;;
15358;SDS011;7779;49.596;11.070;2022-08-11T14:10:58;1.10;;;1.10;;
15358;SDS011;7779;49.596;11.070;2022-08-11T14:13:46;1.40;;;1.30;;
15358;SDS011;7779;49.596;11.070;2022-08-11T14:16:18;1.47;;;1.30;;
15358;SDS011;7779;49.596;11.070;2022-08-11T14:18:51;1.17;;;1.00;;
15358;SDS011;7779;49.596;11.070;2022-08-11T14:21:22;1.13;;;1.00;;
15358;SDS011;7779;49.596;11.070;2022-08-11T14:24:08;1.00;;;1.00;;
15358;SDS011;7779;49.596;11.070;2022-08-11T14:26:37;1.07;;;0.97;;
15358;SDS011;7779;49.596;11.070;2022-08-11T14:31:45;2.17;;;1.20;;
15358;SDS011;7779;49.596;11.070;2022-08-11T14:34:14;1.10;;;1.00;;
15358;SDS011;7779;49.596;11.070;2022-08-11T14:36:50;1.73;;;1.30;;
15358;SDS011;7779;49.596;11.070;2022-08-11T14:39:21;1.00;;;0.90;;
15358;SDS011;7779;49.596;11.070;2022-08-11T14:42:09;1.40;;;1.00;;
15358;SDS011;7779;49.596;11.070;2022-08-11T14:44:58;1.30;;;1.20;;
15358;SDS011;7779;49.596;11.070;2022-08-11T14:47:49;1.53;;;1.10;;
15358;SDS011;7779;49.596;11.070;2022-08-11T14:50:22;1.20;;;1.10;;
15358;SDS011;7779;49.596;11.070;2022-08-11T14:52:54;1.73;;;1.20;;
15358;SDS011;7779;49.596;11.070;2022-08-11T14:55:28;1.87;;;1.20;;
15358;SDS011;7779;49.596;11.070;2022-08-11T14:58:19;1.33;;;1.23;;
15358;SDS011;7779;49.596;11.070;2022-08-11T15:00:51;2.20;;;1.10;;
15358;SDS011;7779;49.596;11.070;2022-08-11T15:03:21;1.57;;;1.20;;
15358;SDS011;7779;49.596;11.070;2022-08-11T15:05:50;1.03;;;1.03;;
15358;SDS011;7779;49.596;11.070;2022-08-11T15:08:30;1.57;;;1.43;;
15358;SDS011;7779;49.596;11.070;2022-08-11T15:11:19;5.57;;;1.13;;
15358;SDS011;7779;49.596;11.070;2022-08-11T15:14:12;1.20;;;1.10;;
15358;SDS011;7779;49.596;11.070;2022-08-11T15:17:00;2.43;;;1.10;;
15358;SDS011;7779;49.596;11.070;2022-08-11T15:19:33;1.37;;;1.10;;
15358;SDS011;7779;49.596;11.070;2022-08-11T15:22:24;1.73;;;1.20;;
15358;SDS011;7779;49.596;11.070;2022-08-11T15:25:09;1.27;;;1.17;;
15358;SDS011;7779;49.596;11.070;2022-08-11T15:27:36;1.63;;;1.20;;
15358;SDS011;7779;49.596;11.070;2022-08-11T15:30:23;1.43;;;1.30;;
15358;SDS011;7779;49.596;11.070;2022-08-11T15:33:10;1.53;;;1.40;;
15358;SDS011;7779;49.596;11.070;2022-08-11T15:35:59;1.40;;;1.20;;
15358;SDS011;7779;49.596;11.070;2022-08-11T15:38:53;1.53;;;1.27;;
15358;SDS011;7779;49.596;11.070;2022-08-11T15:41:38;2.30;;;1.27;;
15358;SDS011;7779;49.596;11.070;2022-08-11T15:44:32;1.30;;;1.20;;
15358;SDS011;7779;49.596;11.070;2022-08-11T15:47:25;3.57;;;1.30;;
15358;SDS011;7779;49.596;11.070;2022-08-11T15:50:00;1.43;;;1.33;;
15358;SDS011;7779;49.596;11.070;2022-08-11T15:52:30;1.33;;;1.23;;
15358;SDS011;7779;49.596;11.070;2022-08-11T15:55:04;1.37;;;1.20;;
15358;SDS011;7779;49.596;11.070;2022-08-11T15:57:32;1.37;;;1.27;;
15358;SDS011;7779;49.596;11.070;2022-08-11T16:00:20;1.40;;;1.30;;
15358;SDS011;7779;49.596;11.070;2022-08-11T16:03:05;4.20;;;1.20;;
15358;SDS011;7779;49.596;11.070;2022-08-11T16:05:52;2.20;;;1.20;;
15358;SDS011;7779;49.596;11.070;2022-08-11T16:08:20;1.50;;;1.40;;
15358;SDS011;7779;49.596;11.070;2022-08-11T16:10:49;1.73;;;1.00;;
15358;SDS011;7779;49.596;11.070;2022-08-11T16:13:20;1.20;;;1.10;;
15358;SDS011;7779;49.596;11.070;2022-08-11T16:15:50;1.43;;;1.33;;
15358;SDS011;7779;49.596;11.070;2022-08-11T16:18:40;3.00;;;1.13;;
15358;SDS011;7779;49.596;11.070;2022-08-11T16:21:17;1.23;;;1.03;;
15358;SDS011;7779;49.596;11.070;2022-08-11T16:23:51;2.30;;;1.23;;
15358;SDS011;7779;49.596;11.070;2022-08-11T16:26:21;1.40;;;1.17;;
15358;SDS011;7779;49.596;11.070;2022-08-11T16:28:50;2.90;;;1.30;;
15358;SDS011;7779;49.596;11.070;2022-08-11T16:31:23;1.17;;;1.00;;
15358;SDS011;7779;49.596;11.070;2022-08-11T16:33:50;3.00;;;1.30;;
15358;SDS011;7779;49.596;11.070;2022-08-11T16:36:22;2.10;;;1.40;;
15358;SDS011;7779;49.596;11.070;2022-08-11T16:39:08;1.47;;;1.07;;
15358;SDS011;7779;49.596;11.070;2022-08-11T16:41:42;1.17;;;1.07;;
15358;SDS011;7779;49.596;11.070;2022-08-11T16:44:29;1.43;;;1.10;;
15358;SDS011;7779;49.596;11.070;2022-08-11T16:47:15;1.17;;;1.07;;
15358;SDS011;7779;49.596;11.070;2022-08-11T16:49:46;3.50;;;1.30;;
15358;SDS011;7779;49.596;11.070;2022-08-11T16:52:18;1.33;;;1.23;;
15358;SDS011;7779;49.596;11.070;2022-08-11T16:54:46;1.57;;;1.30;;
15358;SDS011;7779;49.596;11.070;2022-08-11T16:57:17;1.30;;;1.20;;
15358;SDS011;7779;49.596;11.070;2022-08-11T17:00:10;1.60;;;1.30;;
15358;SDS011;7779;49.596;11.070;2022-08-11T17:02:52;2.40;;;1.40;;
15358;SDS011;7779;49.596;11.070;2022-08-11T17:05:41;1.97;;;1.10;;
15358;SDS011;7779;49.596;11.070;2022-08-11T17:08:38;2.17;;;1.20;;
15358;SDS011;7779;49.596;11.070;2022-08-11T17:11:32;2.30;;;1.73;;
15358;SDS011;7779;49.596;11.070;2022-08-11T17:14:36;1.60;;;1.37;;
15358;SDS011;7779;49.596;11.070;2022-08-11T17:17:17;2.70;;;1.40;;
15358;SDS011;7779;49.596;11.070;2022-08-11T17:19:52;3.37;;;1.30;;
15358;SDS011;7779;49.596;11.070;2022-08-11T17:22:22;1.40;;;1.20;;
15358;SDS011;7779;49.596;11.070;2022-08-11T17:25:11;1.97;;;1.40;;
15358;SDS011;7779;49.596;11.070;2022-08-11T17:27:39;2.03;;;1.03;;
15358;SDS011;7779;49.596;11.070;2022-08-11T17:30:07;1.30;;;1.20;;
15358;SDS011;7779;49.596;11.070;2022-08-11T17:32:36;1.37;;;1.20;;
15358;SDS011;7779;49.596;11.070;2022-08-11T17:35:35;2.10;;;1.30;;
15358;SDS011;7779;49.596;11.070;2022-08-11T17:38:15;2.33;;;1.10;;
15358;SDS011;7779;49.596;11.070;2022-08-11T17:40:51;1.10;;;1.00;;
15358;SDS011;7779;49.596;11.070;2022-08-11T17:43:38;1.33;;;1.10;;
15358;SDS011;7779;49.596;11.070;2022-08-11T17:46:24;1.73;;;1.10;;
15358;SDS011;7779;49.596;11.070;2022-08-11T17:49:11;1.67;;;1.37;;
15358;SDS011;7779;49.596;11.070;2022-08-11T17:51:40;1.30;;;1.20;;
15358;SDS011;7779;49.596;11.070;2022-08-11T17:54:27;1.20;;;1.07;;
15358;SDS011;7779;49.596;11.070;2022-08-11T17:57:14;2.57;;;1.20;;
15358;SDS011;7779;49.596;11.070;2022-08-11T18:00:00;3.50;;;1.63;;
15358;SDS011;7779;49.596;11.070;2022-08-11T18:02:38;3.30;;;1.13;;
15358;SDS011;7779;49.596;11.070;2022-08-11T18:05:27;2.43;;;1.70;;
15358;SDS011;7779;49.596;11.070;2022-08-11T18:08:02;2.10;;;1.20;;
15358;SDS011;7779;49.596;11.070;2022-08-11T18:10:51;1.17;;;1.10;;
15358;SDS011;7779;49.596;11.070;2022-08-11T18:13:39;1.10;;;1.00;;
15358;SDS011;7779;49.596;11.070;2022-08-11T18:16:26;2.00;;;1.13;;
15358;SDS011;7779;49.596;11.070;2022-08-11T18:19:12;1.30;;;1.20;;
15358;SDS011;7779;49.596;11.070;2022-08-11T18:22:07;2.93;;;1.40;;
15358;SDS011;7779;49.596;11.070;2022-08-11T18:25:14;1.77;;;1.23;;
15358;SDS011;7779;49.596;11.070;2022-08-11T18:28:04;1.77;;;1.30;;
15358;SDS011;7779;49.596;11.070;2022-08-11T18:30:54;1.33;;;1.23;;
15358;SDS011;7779;49.596;11.070;2022-08-11T18:33:43;1.57;;;1.37;;
15358;SDS011;7779;49.596;11.070;2022-08-11T18:36:37;2.00;;;1.23;;
15358;SDS011;7779;49.596;11.070;2022-08-11T18:39:32;1.87;;;1.20;;
15358;SDS011;7779;49.596;11.070;2022-08-11T18:42:25;1.67;;;1.30;;
15358;SDS011;7779;49.596;11.070;2022-08-11T18:45:13;1.20;;;1.20;;
15358;SDS011;7779;49.596;11.070;2022-08-11T18:48:00;1.37;;;1.10;;
15358;SDS011;7779;49.596;11.070;2022-08-11T18:50:52;1.30;;;1.20;;
15358;SDS011;7779;49.596;11.070;2022-08-11T18:53:41;1.40;;;1.30;;
15358;SDS011;7779;49.596;11.070;2022-08-11T18:56:32;2.00;;;1.20;;
15358;SDS011;7779;49.596;11.070;2022-08-11T18:59:18;3.17;;;1.40;;
15358;SDS011;7779;49.596;11.070;2022-08-11T19:02:08;2.03;;;1.30;;
15358;SDS011;7779;49.596;11.070;2022-08-11T19:04:55;1.70;;;1.50;;
15358;SDS011;7779;49.596;11.070;2022-08-11T19:07:43;2.30;;;1.40;;
15358;SDS011;7779;49.596;11.070;2022-08-11T19:10:32;1.43;;;1.33;;
15358;SDS011;7779;49.596;11.070;2022-08-11T19:13:17;2.83;;;1.50;;
15358;SDS011;7779;49.596;11.070;2022-08-11T19:16:03;2.13;;;1.80;;
15358;SDS011;7779;49.596;11.070;2022-08-11T19:18:51;2.40;;;1.67;;
15358;SDS011;7779;49.596;11.070;2022-08-11T19:21:38;2.47;;;2.00;;
15358;SDS011;7779;49.596;11.070;2022-08-11T19:24:24;3.53;;;2.30;;
15358;SDS011;7779;49.596;11.070;2022-08-11T19:27:11;2.70;;;2.10;;
15358;SDS011;7779;49.596;11.070;2022-08-11T19:29:57;3.80;;;2.00;;
15358;SDS011;7779;49.596;11.070;2022-08-11T19:32:43;1.70;;;1.60;;
15358;SDS011;7779;49.596;11.070;2022-08-11T19:35:29;2.23;;;1.77;;
15358;SDS011;7779;49.596;11.070;2022-08-11T19:38:15;1.90;;;1.67;;
15358;SDS011;7779;49.596;11.070;2022-08-11T19:41:03;2.40;;;1.37;;
15358;SDS011;7779;49.596;11.070;2022-08-11T19:43:48;2.80;;;1.50;;